Terminal Aerodrome Forecast
Issued by NWS

Home | Current Version | Previous Version | Text Only | Print | Product List | Glossary On
Versions: 1 2 3 4 5 6 7 8 9 10 11 12 13 14 15 16 17 18 19 20 21 22
000
FTUS45 KSLC 262328 CCA
TAFENV
TAF COR
KENV 262328Z 2623/2724 VRB15G35KT 6SM -TSRA SCT070CB BKN090
     FM270300 32008KT P6SM VCSH SCT070 BKN100
     FM270800 30007KT P6SM SCT090 BKN120
     FM271400 12004KT P6SM SKC=

USA.gov is the U.S. government's official web portal to all federal, state and local government web resources and services.